Time;durP1;ratioP1;P1;durP2;ratioP2;P2;SDS_P1;SDS_P2;PMS_P1;PMS_P2;Temp;Humidity;BMP_temperature;BMP_pressure;BME280_temperature;BME280_humidity;BME280_pressure;Samples;Min_cycle;Max_cycle;Signal;HPM_P1;HPM_P2
2023/05/29 00:01:20;;;;;;;21.48;3.67;;;;;;;9.02;100.00;102606.84;5031353;28;20085;-83
2023/05/29 00:03:46;;;;;;;20.55;4.00;;;;;;;8.99;100.00;102601.69;5031154;28;20049;-83
2023/05/29 00:06:13;;;;;;;24.58;3.40;;;;;;;8.95;100.00;102597.50;5029598;28;20026;-82
2023/05/29 00:08:38;;;;;;;21.73;4.50;;;;;;;8.91;100.00;102594.16;5031363;28;20037;-84
2023/05/29 00:11:04;;;;;;;18.08;4.00;;;;;;;8.90;100.00;102596.91;5029632;28;20097;-82
2023/05/29 00:13:29;;;;;;;21.70;3.55;;;;;;;8.84;100.00;102590.13;5030912;28;20025;-82
2023/05/29 00:15:55;;;;;;;16.05;3.35;;;;;;;8.83;100.00;102591.06;5031479;28;20029;-84
2023/05/29 00:18:20;;;;;;;25.48;3.33;;;;;;;8.80;100.00;102591.25;5031802;28;20157;-83
2023/05/29 00:20:46;;;;;;;12.27;2.80;;;;;;;8.76;100.00;102602.94;5030705;28;20116;-84
2023/05/29 00:23:11;;;;;;;17.30;3.47;;;;;;;8.74;100.00;102597.72;5031092;28;20069;-83
2023/05/29 00:25:37;;;;;;;15.00;3.55;;;;;;;8.72;100.00;102598.75;5029728;28;20088;-84
2023/05/29 00:28:02;;;;;;;17.70;3.35;;;;;;;8.68;100.00;102603.38;5032306;28;20037;-84
2023/05/29 00:30:28;;;;;;;20.20;3.75;;;;;;;8.66;100.00;102602.63;5032115;28;20565;-84
2023/05/29 00:32:53;;;;;;;22.85;4.35;;;;;;;8.62;100.00;102601.91;5032194;28;20045;-81
2023/05/29 00:35:19;;;;;;;15.45;3.20;;;;;;;8.58;100.00;102605.69;5030323;28;20041;-83
2023/05/29 00:37:45;;;;;;;14.48;3.45;;;;;;;8.55;100.00;102616.44;5032294;28;20034;-82
2023/05/29 00:40:11;;;;;;;16.52;2.92;;;;;;;8.51;100.00;102611.38;5030970;28;20033;-82
2023/05/29 00:42:36;;;;;;;14.82;2.50;;;;;;;8.53;100.00;102609.53;5030437;28;20041;-85
2023/05/29 00:45:02;;;;;;;21.08;4.25;;;;;;;8.51;100.00;102614.03;5030153;28;20331;-84
2023/05/29 00:47:28;;;;;;;12.50;2.67;;;;;;;8.52;100.00;102621.91;5031229;28;20178;-83
2023/05/29 00:49:55;;;;;;;19.13;3.25;;;;;;;8.50;100.00;102615.84;5031100;28;20109;-82
2023/05/29 00:52:21;;;;;;;19.20;2.88;;;;;;;8.47;100.00;102631.94;5030710;28;20037;-82
2023/05/29 00:54:46;;;;;;;24.83;2.88;;;;;;;8.44;100.00;102626.78;5032403;28;20104;-83
2023/05/29 00:57:13;;;;;;;16.23;2.70;;;;;;;8.43;100.00;102633.00;5034584;28;20419;-82
2023/05/29 00:59:41;;;;;;;21.23;3.47;;;;;;;8.40;100.00;102639.31;5034574;28;20044;-82
2023/05/29 01:02:06;;;;;;;13.80;2.80;;;;;;;8.37;100.00;102634.16;5034351;28;20037;-83
2023/05/29 01:04:34;;;;;;;23.00;3.13;;;;;;;8.35;100.00;102630.75;5032937;28;20049;-82
2023/05/29 01:07:03;;;;;;;16.55;3.38;;;;;;;8.33;100.00;102632.63;5033830;28;20042;-83
2023/05/29 01:09:30;;;;;;;16.52;2.80;;;;;;;8.29;100.00;102639.88;5035175;28;20040;-83
2023/05/29 01:12:17;;;;;;;17.98;2.78;;;;;;;8.28;100.00;102639.97;5034962;28;20506;-82
2023/05/29 01:15:03;;;;;;;18.70;3.25;;;;;;;8.25;100.00;102648.06;5035567;28;20041;-84
2023/05/29 01:17:43;;;;;;;20.92;2.92;;;;;;;8.20;100.00;102645.66;5035204;28;20129;-82
2023/05/29 01:20:15;;;;;;;13.65;2.70;;;;;;;8.19;100.00;102648.41;5034344;28;20462;-83
2023/05/29 01:22:55;;;;;;;17.67;2.88;;;;;;;8.15;100.00;102649.47;5035548;28;20087;-83
2023/05/29 01:25:34;;;;;;;11.45;2.63;;;;;;;8.12;100.00;102648.72;5034949;28;20057;-84
2023/05/29 01:28:04;;;;;;;15.63;2.80;;;;;;;8.08;100.00;102652.44;5035222;28;20033;-83
2023/05/29 01:30:32;;;;;;;17.00;3.17;;;;;;;8.07;100.00;102652.53;5034821;28;20114;-84
2023/05/29 01:32:58;;;;;;;12.77;2.85;;;;;;;8.07;100.00;102649.88;5035264;28;20124;-85
2023/05/29 01:35:25;;;;;;;14.40;3.30;;;;;;;8.02;100.00;102650.13;5033414;28;20410;-84
2023/05/29 01:37:50;;;;;;;18.38;3.72;;;;;;;7.99;100.00;102657.38;5033897;28;20074;-84
2023/05/29 01:40:16;;;;;;;19.73;3.10;;;;;;;7.97;100.00;102652.13;5034581;28;20080;-84
2023/05/29 01:42:42;;;;;;;13.70;3.03;;;;;;;7.92;100.00;102649.72;5034539;28;20174;-84
2023/05/29 01:45:08;;;;;;;11.68;2.53;;;;;;;7.91;100.00;102639.19;5034963;28;20056;-84
2023/05/29 01:47:34;;;;;;;16.55;3.08;;;;;;;7.91;100.00;102655.97;5034955;28;20068;-85
2023/05/29 01:50:00;;;;;;;13.50;3.92;;;;;;;7.87;100.00;102656.22;5033241;28;20030;-82
2023/05/29 01:52:25;;;;;;;17.10;3.00;;;;;;;7.84;100.00;102657.22;5032638;28;20435;-84
2023/05/29 01:54:51;;;;;;;18.00;2.78;;;;;;;7.81;100.00;102659.13;5034292;28;20117;-83
2023/05/29 01:57:16;;;;;;;12.18;2.78;;;;;;;7.80;100.00;102662.75;5033496;28;20025;-85
2023/05/29 01:59:41;;;;;;;19.75;3.00;;;;;;;7.80;100.00;102674.19;5033808;28;20083;-82
2023/05/29 02:02:08;;;;;;;18.27;3.35;;;;;;;7.77;100.00;102672.53;5031992;28;20034;-85
2023/05/29 02:04:33;;;;;;;16.20;3.63;;;;;;;7.77;100.00;102674.34;5032834;28;20371;-83
2023/05/29 02:06:59;;;;;;;10.95;2.42;;;;;;;7.75;100.00;102666.47;5033329;28;20029;-83
2023/05/29 02:09:25;;;;;;;16.70;3.08;;;;;;;7.70;100.00;102663.22;5034202;28;20033;-82
2023/05/29 02:11:50;;;;;;;14.93;3.03;;;;;;;7.70;100.00;102679.09;5016360;28;20167;-83
2023/05/29 02:14:15;;;;;;;12.82;2.33;;;;;;;7.67;100.00;102671.28;5033855;28;20034;-83
2023/05/29 02:16:43;;;;;;;17.98;3.40;;;;;;;7.65;100.00;102673.16;5033766;28;20099;-81
2023/05/29 02:19:09;;;;;;;17.45;2.75;;;;;;;7.65;100.00;102677.59;5033939;28;20048;-83
2023/05/29 02:21:38;;;;;;;20.75;2.80;;;;;;;7.61;100.00;102668.09;5033221;28;20033;-83
2023/05/29 02:24:04;;;;;;;16.67;3.08;;;;;;;7.58;100.00;102667.31;5032505;28;20025;-80
2023/05/29 02:26:30;;;;;;;12.82;2.40;;;;;;;7.56;100.00;102670.97;5033911;28;20426;-82
2023/05/29 02:28:55;;;;;;;14.07;2.55;;;;;;;7.58;100.00;102666.44;5034171;28;20350;-83
2023/05/29 02:31:21;;;;;;;17.90;2.70;;;;;;;7.58;100.00;102664.66;5034149;28;20489;-85
2023/05/29 02:33:46;;;;;;;17.30;3.22;;;;;;;7.61;100.00;102671.59;5033073;28;20034;-85
2023/05/29 02:36:12;;;;;;;19.27;3.55;;;;;;;7.60;100.00;102661.94;5034976;28;20037;-83
2023/05/29 02:38:37;;;;;;;16.30;2.85;;;;;;;7.58;100.00;102667.31;5034475;28;20109;-83
2023/05/29 02:41:03;;;;;;;16.10;2.85;;;;;;;7.55;100.00;102670.13;5034071;28;20042;-81
2023/05/29 02:43:28;;;;;;;20.65;3.58;;;;;;;7.57;100.00;102667.38;5033203;28;20488;-83
2023/05/29 02:45:54;;;;;;;21.90;4.15;;;;;;;7.57;100.00;102668.22;5032888;28;20037;-83
2023/05/29 02:48:19;;;;;;;13.80;2.83;;;;;;;7.54;100.00;102672.84;5030057;28;20111;-84
2023/05/29 02:50:45;;;;;;;16.90;2.88;;;;;;;7.52;100.00;102672.03;5031701;28;20124;-83
2023/05/29 02:53:10;;;;;;;12.15;2.13;;;;;;;7.48;100.00;102679.28;5029892;28;20037;-82
2023/05/29 02:55:36;;;;;;;14.57;2.92;;;;;;;7.44;100.00;102668.91;5031566;28;20049;-82
2023/05/29 02:58:02;;;;;;;17.05;3.33;;;;;;;7.42;100.00;102671.63;5030947;28;20431;-82
2023/05/29 03:00:28;;;;;;;14.38;2.65;;;;;;;7.40;100.00;102662.88;5030125;28;20034;-82
2023/05/29 03:02:54;;;;;;;14.93;2.85;;;;;;;7.40;100.00;102666.41;5030937;28;20351;-83
2023/05/29 03:05:20;;;;;;;17.38;3.00;;;;;;;7.39;100.00;102664.69;5031012;28;20065;-81
2023/05/29 03:07:45;;;;;;;17.25;3.20;;;;;;;7.39;100.00;102669.97;5031483;28;20065;-83
2023/05/29 03:10:11;;;;;;;16.13;2.83;;;;;;;7.40;100.00;102677.00;5029683;28;20430;-83
2023/05/29 03:12:36;;;;;;;18.45;2.95;;;;;;;7.37;100.00;102677.13;5031237;28;20367;-83
2023/05/29 03:15:02;;;;;;;16.50;2.75;;;;;;;7.36;100.00;102680.72;5031172;28;20042;-82
2023/05/29 03:17:27;;;;;;;15.57;2.67;;;;;;;7.34;100.00;102676.44;5030831;28;20442;-84
2023/05/29 03:19:52;;;;;;;12.60;2.80;;;;;;;7.35;100.00;102662.25;5031201;28;20033;-87
2023/05/29 03:22:18;;;;;;;17.55;2.63;;;;;;;7.36;100.00;102666.59;5031279;28;20039;-84
2023/05/29 03:24:43;;;;;;;18.98;2.65;;;;;;;7.35;100.00;102670.22;5030925;28;20037;-83
2023/05/29 03:27:09;;;;;;;16.75;2.50;;;;;;;7.34;100.00;102663.19;5029893;28;20403;-83
2023/05/29 03:29:34;;;;;;;19.15;3.00;;;;;;;7.34;100.00;102666.69;5031538;28;20037;-85
2023/05/29 03:32:00;;;;;;;11.70;2.72;;;;;;;7.37;100.00;102669.19;5031275;28;20025;-84
2023/05/29 03:34:26;;;;;;;18.38;2.80;;;;;;;7.37;100.00;102660.38;5029857;28;20041;-82
2023/05/29 03:36:52;;;;;;;11.10;2.63;;;;;;;7.33;100.00;102657.03;5031506;28;20033;-84
2023/05/29 03:39:18;;;;;;;20.90;3.30;;;;;;;7.33;100.00;102662.34;5032309;28;20068;-85
2023/05/29 03:41:43;;;;;;;17.60;2.45;;;;;;;7.32;100.00;102665.06;5031027;28;20060;-83
2023/05/29 03:44:09;;;;;;;15.45;2.50;;;;;;;7.30;100.00;102666.91;5029758;28;20049;-84
2023/05/29 03:46:35;;;;;;;14.35;3.60;;;;;;;7.29;100.00;102668.69;5029177;28;20036;-83
2023/05/29 03:49:00;;;;;;;18.80;2.45;;;;;;;7.27;100.00;102683.81;5031003;28;20030;-84
2023/05/29 03:51:25;;;;;;;12.32;2.53;;;;;;;7.25;100.00;102672.41;5031594;28;20347;-84
2023/05/29 03:53:51;;;;;;;18.60;2.50;;;;;;;7.26;100.00;102676.78;5013065;28;20041;-82
2023/05/29 03:56:16;;;;;;;10.77;2.30;;;;;;;7.29;100.00;102678.44;5028948;28;20040;-82
2023/05/29 03:58:41;;;;;;;17.05;2.65;;;;;;;7.30;100.00;102682.78;5031184;28;20072;-83
2023/05/29 04:01:08;;;;;;;15.88;2.78;;;;;;;7.32;100.00;102687.09;5030858;28;20075;-81
2023/05/29 04:03:33;;;;;;;15.38;3.50;;;;;;;7.35;100.00;102689.59;5030917;28;20082;-81
2023/05/29 04:05:59;;;;;;;17.77;2.80;;;;;;;7.35;100.00;102681.66;5030641;28;20199;-83
2023/05/29 04:08:25;;;;;;;22.48;3.63;;;;;;;7.39;100.00;102688.53;5029238;28;20079;-83
2023/05/29 04:10:53;;;;;;;15.35;2.90;;;;;;;7.41;100.00;102693.75;5030602;28;20099;-82
2023/05/29 04:13:19;;;;;;;10.50;2.90;;;;;;;7.40;100.00;102687.59;5030440;28;20040;-81
2023/05/29 04:15:45;;;;;;;12.45;2.83;;;;;;;7.41;100.00;102686.66;5030912;28;20068;-83
2023/05/29 04:18:10;;;;;;;12.25;2.42;;;;;;;7.41;100.00;102678.69;5028777;28;20060;-82
2023/05/29 04:20:35;;;;;;;18.38;3.00;;;;;;;7.43;100.00;102689.22;5030762;28;20033;-81
2023/05/29 04:23:01;;;;;;;11.88;2.80;;;;;;;7.46;100.00;102690.88;5029160;28;20087;-83
2023/05/29 04:25:26;;;;;;;20.23;2.88;;;;;;;7.50;100.00;102695.94;5030224;28;20085;-83
2023/05/29 04:27:52;;;;;;;14.13;2.70;;;;;;;7.54;100.00;102702.81;5030576;28;20052;-83
2023/05/29 04:30:17;;;;;;;24.73;2.50;;;;;;;7.58;100.00;102698.22;5031237;28;20131;-82
2023/05/29 04:32:43;;;;;;;14.40;2.30;;;;;;;7.64;100.00;102699.72;5034009;28;20030;-82
2023/05/29 04:35:09;;;;;;;17.02;2.53;;;;;;;7.65;100.00;102698.81;5034546;28;20033;-82
2023/05/29 04:37:38;;;;;;;19.23;3.05;;;;;;;7.68;100.00;102702.16;5033910;28;20530;-84
2023/05/29 04:40:09;;;;;;;15.60;3.20;;;;;;;7.73;100.00;102712.53;5034317;28;20494;-83
2023/05/29 04:42:35;;;;;;;11.18;2.45;;;;;;;7.80;100.00;102705.16;5034276;28;20065;-83
2023/05/29 04:45:01;;;;;;;14.07;2.40;;;;;;;7.87;100.00;102714.50;5033950;28;20121;-84
2023/05/29 04:47:27;;;;;;;13.63;2.63;;;;;;;7.95;100.00;102717.63;5033568;28;20395;-83
2023/05/29 04:49:53;;;;;;;17.83;2.80;;;;;;;8.01;100.00;102721.78;5034255;28;20052;-84
2023/05/29 04:52:20;;;;;;;22.10;2.80;;;;;;;8.02;100.00;102721.69;5033784;28;20048;-85
2023/05/29 04:54:46;;;;;;;16.13;3.55;;;;;;;8.05;100.00;102726.00;5034093;28;20042;-84
2023/05/29 04:57:12;;;;;;;21.05;3.65;;;;;;;8.07;100.00;102724.97;5034174;28;20378;-84
2023/05/29 04:59:37;;;;;;;13.13;2.72;;;;;;;8.13;100.00;102729.09;5034362;28;20216;-83
2023/05/29 05:02:03;;;;;;;19.02;3.90;;;;;;;8.18;100.00;102731.53;5034275;28;20049;-83
2023/05/29 05:04:28;;;;;;;15.85;3.35;;;;;;;8.24;100.00;102726.78;5032632;28;20033;-83
2023/05/29 05:06:53;;;;;;;11.75;2.55;;;;;;;8.34;100.00;102726.31;5033872;28;20044;-85
2023/05/29 05:09:19;;;;;;;18.05;2.67;;;;;;;8.52;100.00;102730.69;5033435;28;20029;-82
2023/05/29 05:11:44;;;;;;;12.32;1.98;;;;;;;8.65;100.00;102733.56;5033238;28;20429;-83
2023/05/29 05:14:09;;;;;;;13.98;2.58;;;;;;;8.76;100.00;102728.56;5032778;28;20030;-84
2023/05/29 05:16:35;;;;;;;20.27;2.47;;;;;;;8.91;100.00;102724.25;5033419;28;20091;-83
2023/05/29 05:19:00;;;;;;;10.07;2.40;;;;;;;9.05;100.00;102736.78;5031648;28;20130;-83
2023/05/29 05:21:26;;;;;;;10.35;2.67;;;;;;;9.19;100.00;102733.34;5032701;28;20061;-83
2023/05/29 05:23:51;;;;;;;17.52;2.63;;;;;;;9.31;100.00;102737.16;5033628;28;20443;-85
2023/05/29 05:26:16;;;;;;;9.90;2.20;;;;;;;9.39;100.00;102737.59;5033279;28;20068;-81
2023/05/29 05:28:42;;;;;;;11.88;2.72;;;;;;;9.48;100.00;102734.41;5031788;28;20033;-83
2023/05/29 05:31:08;;;;;;;14.13;2.55;;;;;;;9.61;100.00;102725.75;5033021;28;20034;-83
2023/05/29 05:33:34;;;;;;;17.10;2.90;;;;;;;9.68;100.00;102730.63;5031531;28;20440;-85
2023/05/29 05:35:59;;;;;;;18.00;2.92;;;;;;;9.78;100.00;102738.94;5014612;28;20030;-86
2023/05/29 05:38:24;;;;;;;19.20;3.40;;;;;;;9.87;100.00;102738.41;5031580;28;20044;-86
2023/05/29 05:40:50;;;;;;;18.20;3.40;;;;;;;9.94;100.00;102740.72;5030993;28;20441;-85
2023/05/29 05:43:15;;;;;;;15.85;2.95;;;;;;;10.04;100.00;102745.41;5032371;28;20113;-83
2023/05/29 05:45:42;;;;;;;18.60;3.13;;;;;;;10.13;100.00;102737.84;5032661;28;20065;-82
2023/05/29 05:48:08;;;;;;;21.70;3.38;;;;;;;10.26;100.00;102749.50;5032542;28;20096;-84
2023/05/29 05:50:34;;;;;;;12.38;2.60;;;;;;;10.34;100.00;102743.75;5033257;28;20049;-86
2023/05/29 05:52:59;;;;;;;17.00;3.80;;;;;;;10.46;100.00;102756.31;5032784;28;20369;-85
2023/05/29 05:55:26;;;;;;;18.55;2.75;;;;;;;10.58;100.00;102754.72;5032594;28;20041;-84
2023/05/29 05:57:51;;;;;;;13.70;3.47;;;;;;;10.68;100.00;102747.88;5031304;28;20432;-83
2023/05/29 06:00:17;;;;;;;16.98;3.22;;;;;;;10.71;100.00;102744.19;5032557;28;20504;-85
2023/05/29 06:02:44;;;;;;;10.25;3.00;;;;;;;10.81;100.00;102753.34;5032000;28;20099;-82
2023/05/29 06:05:11;;;;;;;23.10;2.90;;;;;;;10.91;100.00;102753.63;5032546;28;20045;-81
2023/05/29 06:07:36;;;;;;;16.02;2.42;;;;;;;11.01;100.00;102745.91;5032127;28;20127;-85
2023/05/29 06:10:03;;;;;;;17.75;3.25;;;;;;;11.09;100.00;102755.16;5032343;28;20060;-85
2023/05/29 06:12:29;;;;;;;28.27;3.72;;;;;;;11.15;100.00;102756.59;5032108;28;20053;-83
2023/05/29 06:14:55;;;;;;;21.88;3.55;;;;;;;11.24;100.00;102760.44;5032041;28;20493;-83
2023/05/29 06:17:21;;;;;;;14.77;3.03;;;;;;;11.38;100.00;102756.94;5032185;28;20167;-85
2023/05/29 06:19:47;;;;;;;15.35;2.70;;;;;;;11.50;100.00;102766.81;5014929;28;20038;-83
2023/05/29 06:22:14;;;;;;;19.05;2.90;;;;;;;11.67;100.00;102764.88;5033508;28;20042;-85
2023/05/29 06:24:39;;;;;;;18.05;3.00;;;;;;;11.74;100.00;102764.38;5034387;28;20037;-81
2023/05/29 06:27:06;;;;;;;14.48;2.50;;;;;;;11.78;100.00;102751.72;5032013;28;20049;-84
2023/05/29 06:29:31;;;;;;;14.30;2.63;;;;;;;11.64;100.00;102766.78;5032468;28;20060;-81
2023/05/29 06:31:57;;;;;;;17.25;3.08;;;;;;;11.68;100.00;102758.59;5031632;28;20446;-82
2023/05/29 06:34:22;;;;;;;12.18;2.50;;;;;;;11.78;100.00;102751.72;5013939;28;20036;-81
2023/05/29 06:36:48;;;;;;;14.93;3.00;;;;;;;11.95;100.00;102756.78;5031591;28;20048;-81
2023/05/29 06:39:14;;;;;;;19.77;3.42;;;;;;;12.09;100.00;102755.91;5031729;28;20354;-82
2023/05/29 06:41:39;;;;;;;12.63;2.60;;;;;;;12.19;100.00;102756.13;5029845;28;20124;-80
2023/05/29 06:44:04;;;;;;;16.15;2.90;;;;;;;12.23;100.00;102757.63;5031197;28;20052;-82
2023/05/29 06:46:30;;;;;;;14.85;2.92;;;;;;;12.39;100.00;102762.81;5031466;28;20351;-84
2023/05/29 06:48:55;;;;;;;14.23;3.03;;;;;;;12.51;100.00;102756.63;5029589;28;20184;-81
2023/05/29 06:51:21;;;;;;;16.63;2.58;;;;;;;12.70;100.00;102752.66;5031069;28;20160;-82
2023/05/29 06:53:46;;;;;;;14.73;2.45;;;;;;;12.84;100.00;102762.41;5030930;28;20037;-80
2023/05/29 06:56:12;;;;;;;17.00;3.13;;;;;;;12.81;100.00;102763.47;5031244;28;20035;-83
2023/05/29 06:58:37;;;;;;;12.80;2.60;;;;;;;12.78;100.00;102774.38;5031369;28;20033;-82
2023/05/29 07:01:02;;;;;;;12.10;3.30;;;;;;;12.86;100.00;102763.16;5031032;28;20419;-79
2023/05/29 07:03:28;;;;;;;15.68;2.60;;;;;;;13.01;100.00;102762.06;5031101;28;20037;-78
2023/05/29 07:05:54;;;;;;;13.30;2.60;;;;;;;13.16;100.00;102761.94;5029270;28;20411;-75
2023/05/29 07:08:19;;;;;;;16.38;3.25;;;;;;;13.37;100.00;102768.44;5029935;28;20116;-78
2023/05/29 07:10:45;;;;;;;14.70;2.60;;;;;;;13.45;100.00;102764.38;5030763;28;20382;-78
2023/05/29 07:13:14;;;;;;;15.50;3.15;;;;;;;13.56;100.00;102772.47;5030727;28;20033;-87
2023/05/29 07:15:40;;;;;;;16.95;2.88;;;;;;;13.78;100.00;102776.25;5030878;28;20025;-79
2023/05/29 07:18:05;;;;;;;9.95;2.35;;;;;;;13.65;100.00;102770.97;5029417;28;20048;-77
2023/05/29 07:20:31;;;;;;;23.42;3.38;;;;;;;13.35;100.00;102770.38;5030619;28;20107;-77
2023/05/29 07:22:56;;;;;;;17.00;2.70;;;;;;;13.28;100.00;102766.41;5029273;28;20374;-77
2023/05/29 07:25:21;;;;;;;12.55;2.80;;;;;;;13.40;100.00;102780.75;5029083;28;20054;-78
2023/05/29 07:27:47;;;;;;;11.63;2.60;;;;;;;13.48;100.00;102772.16;5030799;28;20140;-78
2023/05/29 07:30:12;;;;;;;15.50;2.63;;;;;;;13.70;100.00;102784.84;5030534;28;20453;-76
2023/05/29 07:32:38;;;;;;;10.45;2.38;;;;;;;13.73;100.00;102782.81;5028976;28;20029;-76
2023/05/29 07:35:04;;;;;;;15.55;2.80;;;;;;;13.93;100.00;102797.38;5030539;28;20061;-78
2023/05/29 07:37:30;;;;;;;17.35;2.75;;;;;;;13.81;100.00;102794.75;5029394;28;20441;-78
2023/05/29 07:39:55;;;;;;;11.60;2.72;;;;;;;13.81;100.00;102789.41;5030220;28;20033;-78
2023/05/29 07:42:21;;;;;;;11.07;2.40;;;;;;;13.81;100.00;102789.41;5030863;28;20034;-76
2023/05/29 07:44:47;;;;;;;11.93;2.50;;;;;;;14.00;100.00;102784.41;5030292;28;20121;-78
2023/05/29 07:47:13;;;;;;;17.65;2.92;;;;;;;14.19;100.00;102785.72;5030431;28;20080;-78
2023/05/29 07:49:38;;;;;;;12.18;2.60;;;;;;;14.35;100.00;102783.56;5030738;28;20033;-78
2023/05/29 07:52:05;;;;;;;8.15;2.25;;;;;;;14.51;100.00;102783.28;5031163;28;20037;-78
2023/05/29 07:54:32;;;;;;;19.50;3.28;;;;;;;14.67;98.82;102779.44;5031045;28;20156;-78
2023/05/29 07:57:09;;;;;;;11.88;2.33;;;;;;;14.57;98.82;102789.97;5030224;28;20064;-78
2023/05/29 07:59:35;;;;;;;16.65;2.80;;;;;;;14.51;97.96;102793.97;5029280;28;20029;-77
2023/05/29 08:02:02;;;;;;;12.80;2.78;;;;;;;14.75;100.00;102798.44;5030398;28;20183;-78
2023/05/29 08:04:28;;;;;;;16.20;3.08;;;;;;;15.06;100.00;102791.56;5031541;28;20029;-78
2023/05/29 08:06:53;;;;;;;11.82;2.33;;;;;;;15.33;99.26;102799.22;5034201;28;20045;-78
2023/05/29 08:09:18;;;;;;;17.02;2.90;;;;;;;15.45;83.95;102797.38;5033824;28;20227;-78
2023/05/29 08:11:46;;;;;;;7.55;2.28;;;;;;;15.23;85.24;102800.94;5034070;28;20048;-81
2023/05/29 08:14:15;;;;;;;12.48;2.50;;;;;;;15.38;93.83;102800.69;5034267;28;20108;-79
2023/05/29 08:16:40;;;;;;;15.30;2.65;;;;;;;15.58;91.45;102804.44;5033962;28;20064;-82
2023/05/29 08:19:06;;;;;;;10.30;2.83;;;;;;;15.45;87.07;102802.75;5033788;28;20114;-82
2023/05/29 08:21:31;;;;;;;15.25;3.28;;;;;;;15.63;84.74;102799.53;5034033;28;20041;-81
2023/05/29 08:23:57;;;;;;;10.15;2.60;;;;;;;15.74;86.32;102799.53;5033750;28;20442;-80
2023/05/29 08:26:23;;;;;;;8.93;2.85;;;;;;;16.03;87.67;102801.66;5034022;28;20423;-81
2023/05/29 08:28:48;;;;;;;12.85;2.33;;;;;;;16.34;83.28;102804.47;5033777;28;20048;-80
2023/05/29 08:31:14;;;;;;;9.85;2.40;;;;;;;16.59;74.83;102805.94;5016066;28;20120;-80
2023/05/29 08:33:39;;;;;;;13.23;2.20;;;;;;;16.70;70.33;102808.53;5033474;28;20030;-79
2023/05/29 08:36:05;;;;;;;11.93;2.72;;;;;;;16.84;69.38;102803.81;5032069;28;20053;-79
2023/05/29 08:38:30;;;;;;;11.82;2.75;;;;;;;16.84;72.20;102793.94;4999588;28;20429;-79
2023/05/29 08:40:59;;;;;;;12.68;2.35;;;;;;;16.91;67.40;102799.66;5033773;28;20447;-83
2023/05/29 08:43:30;;;;;;;12.35;2.42;;;;;;;16.75;66.28;102805.50;5032102;28;20140;-80
2023/05/29 08:46:00;;;;;;;10.57;2.67;;;;;;;16.65;70.52;102807.25;5033707;28;20030;-79
2023/05/29 08:48:27;;;;;;;11.98;2.65;;;;;;;16.86;68.16;102807.25;5033931;28;20442;-82
2023/05/29 08:50:54;;;;;;;9.38;2.40;;;;;;;17.16;69.53;102803.72;5032118;28;20037;-81
2023/05/29 08:53:21;;;;;;;12.98;2.70;;;;;;;17.32;67.31;102811.31;5032090;28;20057;-82
2023/05/29 08:55:48;;;;;;;11.25;2.45;;;;;;;17.34;62.90;102819.25;5031695;28;20072;-81
2023/05/29 08:58:16;;;;;;;13.13;2.63;;;;;;;17.34;66.85;102817.41;5033291;28;20434;-81
2023/05/29 09:00:42;;;;;;;12.65;2.40;;;;;;;17.41;60.54;102813.19;5033312;28;20489;-79
2023/05/29 09:03:07;;;;;;;16.05;3.10;;;;;;;17.63;61.16;102814.81;5033105;28;20049;-81
2023/05/29 09:05:33;;;;;;;16.50;2.83;;;;;;;17.82;59.19;102804.22;5033473;28;20076;-86
2023/05/29 09:07:59;;;;;;;11.82;2.50;;;;;;;18.18;58.59;102809.94;5033008;28;20029;-81
2023/05/29 09:10:27;;;;;;;13.35;3.22;;;;;;;18.47;61.75;102802.69;5033423;28;20430;-80
2023/05/29 09:12:53;;;;;;;8.65;2.03;;;;;;;18.82;58.82;102806.63;5033156;28;20469;-79
2023/05/29 09:15:23;;;;;;;11.05;2.78;;;;;;;19.19;54.58;102819.28;5032838;28;20109;-81
2023/05/29 09:17:59;;;;;;;9.05;2.13;;;;;;;19.27;53.45;102813.19;5033574;28;20045;-80
2023/05/29 09:20:25;;;;;;;9.80;2.58;;;;;;;19.65;52.30;102824.75;5033039;28;20033;-81
2023/05/29 09:23:04;;;;;;;10.65;2.40;;;;;;;19.88;51.58;102817.13;5033208;28;20103;-81
2023/05/29 09:25:32;;;;;;;13.65;2.70;;;;;;;20.06;51.18;102818.97;5032744;28;20046;-81
2023/05/29 09:28:00;;;;;;;13.20;3.05;;;;;;;20.33;51.48;102812.66;5031131;28;20389;-81
2023/05/29 09:30:42;;;;;;;10.98;2.63;;;;;;;20.45;48.25;102805.09;5033200;28;20022;-83
2023/05/29 09:33:10;;;;;;;9.55;2.70;;;;;;;20.42;51.25;102814.41;5032653;28;20040;-81
2023/05/29 09:35:39;;;;;;;13.15;2.55;;;;;;;20.53;50.81;102807.91;5032280;28;20051;-80
2023/05/29 09:38:06;;;;;;;8.70;2.50;;;;;;;20.37;49.07;102803.19;5032660;28;20067;-81
2023/05/29 09:40:35;;;;;;;15.80;2.60;;;;;;;20.67;49.84;102800.25;5032497;28;20037;-81
2023/05/29 09:43:04;;;;;;;11.50;2.72;;;;;;;20.96;46.08;102799.94;5030922;28;20132;-81
2023/05/29 09:45:30;;;;;;;10.80;2.55;;;;;;;20.75;46.27;102803.84;5032753;28;20044;-81
2023/05/29 09:47:56;;;;;;;10.13;2.75;;;;;;;20.92;46.61;102799.38;5032194;28;20449;-81
2023/05/29 09:50:25;;;;;;;12.02;2.78;;;;;;;20.95;48.59;102795.53;5030835;28;20033;-82
2023/05/29 09:52:53;;;;;;;10.18;2.40;;;;;;;20.90;45.42;102789.72;5033115;28;20394;-85
2023/05/29 09:55:26;;;;;;;14.05;2.63;;;;;;;20.85;46.43;102800.19;5032456;28;20030;-80
2023/05/29 09:57:54;;;;;;;10.10;2.38;;;;;;;20.61;48.06;102788.16;5031235;28;20064;-81
2023/05/29 10:00:21;;;;;;;18.63;2.70;;;;;;;20.36;46.37;102792.53;5031709;28;20355;-83
2023/05/29 10:02:48;;;;;;;11.25;2.15;;;;;;;20.45;47.83;102783.47;5032368;28;20036;-83
2023/05/29 10:05:15;;;;;;;11.85;2.33;;;;;;;20.16;50.41;102791.88;5031936;28;20034;-82
2023/05/29 10:07:44;;;;;;;15.98;2.95;;;;;;;20.26;51.05;102788.09;5032324;28;20037;-84
2023/05/29 10:10:11;;;;;;;11.90;2.75;;;;;;;20.58;48.89;102783.09;5032245;28;20115;-82
2023/05/29 10:12:39;;;;;;;11.27;2.60;;;;;;;20.65;48.52;102786.84;5032026;28;20037;-82
2023/05/29 10:15:16;;;;;;;11.45;2.30;;;;;;;20.66;47.18;102780.47;5032225;28;20032;-82
2023/05/29 10:17:57;;;;;;;11.32;2.70;;;;;;;20.80;48.28;102784.44;5031898;28;20029;-81
2023/05/29 10:20:23;;;;;;;11.20;2.25;;;;;;;20.84;46.70;102777.72;5030710;28;20048;-83
2023/05/29 10:22:51;;;;;;;11.57;2.47;;;;;;;21.08;46.28;102781.56;5031903;28;20029;-84
2023/05/29 10:25:20;;;;;;;14.18;2.72;;;;;;;21.55;48.24;102778.38;5029736;28;20128;-82
2023/05/29 10:27:45;;;;;;;11.45;2.83;;;;;;;21.95;46.42;102789.47;5029675;28;20038;-83
2023/05/29 10:30:21;;;;;;;11.30;2.63;;;;;;;22.15;44.71;102798.97;5031906;28;20026;-83
2023/05/29 10:33:11;;;;;;;12.88;2.47;;;;;;;21.57;43.47;102795.31;5030535;28;20037;-83
2023/05/29 10:35:55;;;;;;;7.77;2.47;;;;;;;22.13;45.51;102789.31;5032248;28;20128;-81
2023/05/29 10:38:21;;;;;;;8.77;2.50;;;;;;;21.99;40.58;102780.81;5031142;28;20260;-81
2023/05/29 10:40:46;;;;;;;10.82;2.40;;;;;;;22.20;43.28;102782.19;5031627;28;20112;-81
2023/05/29 10:43:34;;;;;;;17.05;2.70;;;;;;;22.68;43.88;102798.63;5030339;28;20053;-81
2023/05/29 10:46:01;;;;;;;12.65;2.65;;;;;;;22.54;41.45;102786.59;5034166;28;20038;-82
2023/05/29 10:48:36;;;;;;;11.30;2.42;;;;;;;23.14;42.55;102777.16;5086469;27;1291098;-84
2023/05/29 10:51:05;;;;;;;9.68;2.83;;;;;;;23.33;38.34;102777.72;5110905;28;20094;-82
2023/05/29 10:53:32;;;;;;;9.85;2.83;;;;;;;23.24;40.00;102777.78;5108908;28;20136;-81
2023/05/29 10:55:59;;;;;;;8.68;2.60;;;;;;;23.44;40.63;102784.63;5089426;28;20103;-81
2023/05/29 10:58:27;;;;;;;10.60;2.95;;;;;;;22.96;39.13;102790.94;5107485;28;20044;-81
2023/05/29 11:00:56;;;;;;;11.95;2.63;;;;;;;22.91;40.45;102778.88;5107612;28;20024;-81
2023/05/29 11:03:32;;;;;;;8.48;2.47;;;;;;;23.09;40.72;102767.81;5088871;28;20392;-82
2023/05/29 11:06:17;;;;;;;13.93;3.20;;;;;;;23.58;42.34;102773.00;5107604;28;20040;-80
2023/05/29 11:08:46;;;;;;;13.82;2.90;;;;;;;24.08;40.44;102770.81;5107734;28;20038;-81
2023/05/29 11:11:28;;;;;;;11.32;2.80;;;;;;;24.30;37.97;102769.09;5107138;28;20048;-78
2023/05/29 11:13:55;;;;;;;15.38;2.78;;;;;;;23.66;38.10;102769.38;5107664;28;20110;-77
2023/05/29 11:16:29;;;;;;;13.20;2.83;;;;;;;23.15;39.37;102778.81;5107135;28;20088;-78